Time;durP1;ratioP1;P1;durP2;ratioP2;P2;SDS_P1;SDS_P2;PMS_P1;PMS_P2;Temp;Humidity;BMP_temperature;BMP_pressure;BME280_temperature;BME280_humidity;BME280_pressure;Samples;Min_cycle;Max_cycle;Signal;HPM_P1;HPM_P2
2023/01/07 00:01:17;;;;;;;0.00;0.00;;;9.00;99.90;;;;;;5022895;28;20026;-72
2023/01/07 00:03:45;;;;;;;0.00;0.00;;;9.00;99.90;;;;;;5021470;28;21436;-72
2023/01/07 00:06:24;;;;;;;0.00;0.00;;;9.10;99.90;;;;;;5017341;28;20033;-72
2023/01/07 00:08:51;;;;;;;0.00;0.00;;;9.10;99.90;;;;;;5022619;28;20354;-72
2023/01/07 00:11:19;;;;;;;0.00;0.00;;;9.10;99.90;;;;;;5018828;28;20021;-72
2023/01/07 00:13:52;;;;;;;0.80;0.20;;;9.10;99.90;;;;;;5020853;28;20031;-72
2023/01/07 00:16:22;;;;;;;0.00;0.00;;;9.00;99.90;;;;;;5011289;28;20026;-72
2023/01/07 00:18:50;;;;;;;0.00;0.00;;;9.10;99.90;;;;;;5017888;28;20822;-72
2023/01/07 00:21:17;;;;;;;0.00;0.00;;;9.10;99.90;;;;;;5023784;28;20487;-72
2023/01/07 00:23:47;;;;;;;0.00;0.00;;;9.00;99.90;;;;;;5021240;28;20022;-72
2023/01/07 00:26:18;;;;;;;0.00;0.00;;;9.00;99.90;;;;;;5019570;28;20021;-72
2023/01/07 00:28:49;;;;;;;0.00;0.00;;;9.00;99.90;;;;;;5020234;28;20037;-72
2023/01/07 00:31:23;;;;;;;0.00;0.00;;;8.90;99.90;;;;;;5025480;28;20025;-72
2023/01/07 00:34:05;;;;;;;0.00;0.00;;;8.90;99.90;;;;;;5010978;28;20106;-72
2023/01/07 00:36:42;;;;;;;0.00;0.00;;;8.90;99.90;;;;;;5015951;28;20029;-73
2023/01/07 00:39:15;;;;;;;0.00;0.00;;;8.80;99.90;;;;;;5022965;28;20056;-72
2023/01/07 00:44:27;;;;;;;0.00;0.00;;;8.90;99.90;;;;;;5020795;28;20083;-72
2023/01/07 00:46:53;;;;;;;;;;;8.80;99.90;;;;;;5017267;28;20018;-72
2023/01/07 00:49:19;;;;;;;0.00;0.00;;;8.80;99.90;;;;;;5019403;28;19915;-72
2023/01/07 00:51:44;;;;;;;0.00;0.00;;;8.80;99.90;;;;;;5020562;28;20068;-72
2023/01/07 00:54:13;;;;;;;0.00;0.00;;;8.70;99.90;;;;;;5025579;28;20109;-72
2023/01/07 00:56:39;;;;;;;0.00;0.00;;;8.70;99.90;;;;;;5017216;28;20030;-72
2023/01/07 00:59:04;;;;;;;0.00;0.00;;;8.70;99.90;;;;;;5019923;28;20433;-72
2023/01/07 01:01:30;;;;;;;0.00;0.00;;;8.70;99.90;;;;;;5017710;28;20467;-71
2023/01/07 01:03:57;;;;;;;0.00;0.00;;;8.70;99.90;;;;;;5018748;28;20027;-72
2023/01/07 01:06:23;;;;;;;;;;;8.60;99.90;;;;;;5014080;28;20033;-72
2023/01/07 01:08:50;;;;;;;0.00;0.00;;;8.60;99.90;;;;;;5023338;28;19909;-73
2023/01/07 01:11:16;;;;;;;0.00;0.00;;;8.60;99.90;;;;;;5013363;28;20029;-72
2023/01/07 01:13:44;;;;;;;0.00;0.00;;;8.60;99.90;;;;;;5021728;28;20021;-72
2023/01/07 01:16:16;;;;;;;0.00;0.00;;;8.60;99.90;;;;;;5023629;28;20025;-72
2023/01/07 01:18:45;;;;;;;0.00;0.00;;;8.60;99.90;;;;;;5021292;28;20017;-72
2023/01/07 01:21:13;;;;;;;0.00;0.00;;;8.60;99.90;;;;;;5018810;28;20789;-73
2023/01/07 01:23:39;;;;;;;0.00;0.00;;;8.60;99.90;;;;;;5025071;28;20057;-72
2023/01/07 01:26:12;;;;;;;0.00;0.00;;;8.60;99.90;;;;;;5017755;28;20056;-72
2023/01/07 01:28:39;;;;;;;0.00;0.00;;;8.80;99.90;;;;;;5020414;28;20038;-72
2023/01/07 01:31:09;;;;;;;;;;;8.80;99.90;;;;;;5022024;28;20104;-72
2023/01/07 01:33:38;;;;;;;0.00;0.00;;;8.90;99.90;;;;;;5028072;28;20250;-72
2023/01/07 01:36:09;;;;;;;0.00;0.00;;;9.00;99.90;;;;;;5033777;28;20053;-72
2023/01/07 01:38:36;;;;;;;0.00;0.00;;;9.00;99.90;;;;;;5023542;28;20365;-72
2023/01/07 01:41:02;;;;;;;0.00;0.00;;;9.10;99.90;;;;;;5016729;28;20029;-73
2023/01/07 01:43:38;;;;;;;0.00;0.00;;;9.10;99.90;;;;;;5020300;28;20022;-72
2023/01/07 01:46:11;;;;;;;0.00;0.00;;;9.10;99.90;;;;;;5020209;28;20075;-72
2023/01/07 01:48:42;;;;;;;0.00;0.00;;;9.10;99.90;;;;;;5025198;28;20029;-72
2023/01/07 01:51:16;;;;;;;0.00;0.00;;;9.10;99.90;;;;;;5019264;28;20038;-72
2023/01/07 01:53:45;;;;;;;0.00;0.00;;;9.20;99.90;;;;;;5027023;28;20112;-72
2023/01/07 01:56:18;;;;;;;0.00;0.00;;;9.30;99.90;;;;;;5020434;28;20044;-72
2023/01/07 01:58:55;;;;;;;0.00;0.00;;;9.40;99.90;;;;;;5024873;28;20033;-72
2023/01/07 02:01:21;;;;;;;0.00;0.00;;;9.40;99.90;;;;;;5022500;28;20391;-73
2023/01/07 02:03:48;;;;;;;0.00;0.00;;;9.40;99.90;;;;;;5018879;28;20026;-72
2023/01/07 02:06:25;;;;;;;0.00;0.00;;;9.40;99.90;;;;;;5020674;28;20026;-72
2023/01/07 02:08:51;;;;;;;0.00;0.00;;;9.40;99.90;;;;;;5020871;28;20034;-72
2023/01/07 02:11:43;;;;;;;0.00;0.00;;;9.40;99.90;;;;;;5019854;28;20029;-72
2023/01/07 02:14:57;;;;;;;0.00;0.00;;;9.50;99.90;;;;;;5021001;28;20677;-72
2023/01/07 02:17:31;;;;;;;0.00;0.00;;;9.60;99.90;;;;;;4987883;28;20025;-71
2023/01/07 02:20:02;;;;;;;0.00;0.00;;;9.60;99.90;;;;;;5004246;28;20583;-72
2023/01/07 02:23:07;;;;;;;0.00;0.00;;;9.60;99.90;;;;;;5015708;28;20038;-72
2023/01/07 02:26:07;;;;;;;0.00;0.00;;;9.60;99.90;;;;;;5018725;28;20108;-72
2023/01/07 02:28:54;;;;;;;0.00;0.00;;;9.70;99.90;;;;;;5048869;28;20410;-71
2023/01/07 02:31:48;;;;;;;0.00;0.00;;;9.60;99.90;;;;;;5040794;28;20022;-71
2023/01/07 02:34:35;;;;;;;0.00;0.00;;;9.60;99.90;;;;;;5018241;28;20104;-71
2023/01/07 02:37:04;;;;;;;0.00;0.00;;;9.60;99.90;;;;;;5018951;28;20103;-72
2023/01/07 02:39:44;;;;;;;0.00;0.00;;;9.60;99.90;;;;;;5020970;28;20097;-72
2023/01/07 02:42:20;;;;;;;0.00;0.00;;;9.60;99.90;;;;;;5022989;28;20049;-72
2023/01/07 02:45:19;;;;;;;0.00;0.00;;;9.60;99.90;;;;;;5022445;28;20383;-72
2023/01/07 02:48:02;;;;;;;0.00;0.00;;;9.60;99.90;;;;;;5019499;28;20422;-72
2023/01/07 02:50:35;;;;;;;0.00;0.00;;;9.50;99.90;;;;;;5024730;28;20521;-72
2023/01/07 02:53:05;;;;;;;0.00;0.00;;;9.50;99.90;;;;;;5026510;28;20021;-72
2023/01/07 02:56:03;;;;;;;0.00;0.00;;;9.50;99.90;;;;;;5021485;28;20021;-72
2023/01/07 02:58:48;;;;;;;0.00;0.00;;;9.50;99.90;;;;;;4966684;28;20072;-71
2023/01/07 03:01:51;;;;;;;0.00;0.00;;;9.50;99.90;;;;;;4967623;28;20051;-72
2023/01/07 03:04:37;;;;;;;0.00;0.00;;;9.50;99.90;;;;;;5025339;28;20120;-72
2023/01/07 03:07:15;;;;;;;0.00;0.00;;;9.50;99.90;;;;;;5021887;28;20048;-72
2023/01/07 03:09:44;;;;;;;0.00;0.00;;;9.60;99.90;;;;;;5022528;28;20025;-73
2023/01/07 03:12:50;;;;;;;0.00;0.00;;;9.60;99.90;;;;;;5013522;28;21572;-72
2023/01/07 03:15:31;;;;;;;0.00;0.00;;;9.60;99.90;;;;;;5007898;28;20041;-72
2023/01/07 03:18:28;;;;;;;0.20;0.20;;;9.60;99.90;;;;;;5019619;28;20108;-72
2023/01/07 03:21:02;;;;;;;0.00;0.00;;;9.60;99.90;;;;;;5007384;28;20048;-72
2023/01/07 03:23:30;;;;;;;0.00;0.00;;;9.50;99.90;;;;;;5018693;28;20021;-72
2023/01/07 03:26:03;;;;;;;0.00;0.00;;;9.60;99.90;;;;;;5021814;28;20163;-72
2023/01/07 03:28:35;;;;;;;0.00;0.00;;;9.60;99.90;;;;;;5019687;28;20022;-73
2023/01/07 03:31:02;;;;;;;0.00;0.00;;;9.60;99.90;;;;;;5019537;28;20020;-72
2023/01/07 03:33:35;;;;;;;0.00;0.00;;;9.60;99.90;;;;;;5021750;28;20056;-72
2023/01/07 03:36:03;;;;;;;0.00;0.00;;;9.70;99.90;;;;;;5025731;28;20096;-72
2023/01/07 03:38:29;;;;;;;0.00;0.00;;;9.70;99.90;;;;;;5038411;28;20025;-72
2023/01/07 03:40:56;;;;;;;0.00;0.00;;;9.70;99.90;;;;;;5020124;28;20517;-71
2023/01/07 03:43:23;;;;;;;;;;;9.80;99.90;;;;;;5008587;28;20038;-72
2023/01/07 03:45:50;;;;;;;0.00;0.00;;;9.80;99.90;;;;;;5035683;28;19909;-72
2023/01/07 03:48:16;;;;;;;0.00;0.00;;;9.80;99.90;;;;;;5026109;28;20097;-72
2023/01/07 03:50:43;;;;;;;0.00;0.00;;;9.80;99.90;;;;;;5025478;28;20390;-72
2023/01/07 03:53:11;;;;;;;;;;;9.80;99.90;;;;;;5020768;28;20033;-72
2023/01/07 03:55:37;;;;;;;0.00;0.00;;;9.80;99.90;;;;;;5019989;28;19913;-72
2023/01/07 03:58:04;;;;;;;0.00;0.00;;;9.80;99.90;;;;;;5025797;28;20032;-72
2023/01/07 04:00:32;;;;;;;0.00;0.00;;;9.80;99.90;;;;;;5024320;28;20104;-72
2023/01/07 04:02:58;;;;;;;0.00;0.00;;;9.80;99.90;;;;;;5019098;28;20025;-72
2023/01/07 04:05:24;;;;;;;;;;;9.80;99.90;;;;;;5025467;28;20017;-72
2023/01/07 04:07:50;;;;;;;0.00;0.00;;;9.80;99.90;;;;;;5017750;28;20262;-72
2023/01/07 04:10:19;;;;;;;0.00;0.00;;;9.70;99.90;;;;;;5024183;28;20029;-71
2023/01/07 04:12:46;;;;;;;0.00;0.00;;;9.80;99.90;;;;;;5015703;28;20048;-72
2023/01/07 04:15:14;;;;;;;0.00;0.00;;;9.80;99.90;;;;;;5021755;28;20651;-72
2023/01/07 04:17:40;;;;;;;0.00;0.00;;;9.80;99.90;;;;;;5031552;28;20033;-72
2023/01/07 04:20:06;;;;;;;;;;;9.80;99.90;;;;;;5018855;28;20060;-72
2023/01/07 04:22:32;;;;;;;0.00;0.00;;;9.80;99.90;;;;;;5025748;28;19932;-72
2023/01/07 04:24:58;;;;;;;0.00;0.00;;;9.80;99.90;;;;;;5021605;28;20021;-72
2023/01/07 04:27:30;;;;;;;0.00;0.00;;;9.80;99.90;;;;;;5031494;28;20040;-72
2023/01/07 04:29:57;;;;;;;0.00;0.00;;;9.80;99.90;;;;;;5020056;28;20043;-72
2023/01/07 04:32:23;;;;;;;0.00;0.00;;;9.80;99.90;;;;;;5019664;28;20045;-72
2023/01/07 04:34:49;;;;;;;0.00;0.00;;;9.80;99.90;;;;;;5025985;28;20056;-72
2023/01/07 04:37:16;;;;;;;0.00;0.00;;;9.80;99.90;;;;;;5020787;28;20029;-72
2023/01/07 04:39:42;;;;;;;0.00;0.00;;;9.80;99.90;;;;;;5019412;28;20025;-72
2023/01/07 04:42:12;;;;;;;0.00;0.00;;;9.80;99.90;;;;;;5020941;28;20025;-72
2023/01/07 04:44:37;;;;;;;0.03;0.03;;;9.80;99.90;;;;;;5019311;28;20085;-71
2023/01/07 04:47:03;;;;;;;0.00;0.00;;;9.80;99.90;;;;;;5018270;28;20674;-72
2023/01/07 04:49:29;;;;;;;0.00;0.00;;;9.70;99.90;;;;;;5019178;28;20525;-72
2023/01/07 04:51:54;;;;;;;0.00;0.00;;;9.70;99.90;;;;;;5018170;28;20021;-72
2023/01/07 04:54:23;;;;;;;0.00;0.00;;;9.80;99.90;;;;;;5023219;28;20053;-72
2023/01/07 04:56:49;;;;;;;0.00;0.00;;;9.80;99.90;;;;;;5017782;28;20100;-72
2023/01/07 04:59:20;;;;;;;0.00;0.00;;;9.80;99.90;;;;;;5014920;28;20160;-72
2023/01/07 05:01:47;;;;;;;0.00;0.00;;;9.80;99.90;;;;;;5021286;28;20478;-72
2023/01/07 05:04:14;;;;;;;0.00;0.00;;;9.80;99.90;;;;;;5022441;28;20164;-72
2023/01/07 05:06:41;;;;;;;;;;;9.80;99.90;;;;;;5020066;28;20022;-72
2023/01/07 05:09:10;;;;;;;0.00;0.00;;;9.80;99.90;;;;;;5019857;28;19913;-72
2023/01/07 05:11:38;;;;;;;0.00;0.00;;;9.80;99.90;;;;;;5019373;28;20025;-72
2023/01/07 05:14:06;;;;;;;0.00;0.00;;;9.70;99.90;;;;;;5023779;28;20033;-72
2023/01/07 05:16:32;;;;;;;0.00;0.00;;;9.70;99.90;;;;;;5025593;28;20083;-72
2023/01/07 05:19:00;;;;;;;0.00;0.00;;;9.70;99.90;;;;;;5024335;28;20681;-72
2023/01/07 05:21:27;;;;;;;0.00;0.00;;;9.70;99.90;;;;;;5023891;28;20279;-72
2023/01/07 05:23:52;;;;;;;0.00;0.00;;;9.70;99.90;;;;;;5030186;28;20463;-71
2023/01/07 05:26:19;;;;;;;0.00;0.00;;;9.70;99.90;;;;;;5024249;28;20034;-72
2023/01/07 05:28:45;;;;;;;0.00;0.00;;;9.70;99.90;;;;;;5024193;28;20037;-72
2023/01/07 05:31:10;;;;;;;0.00;0.00;;;9.60;99.90;;;;;;5023434;28;20049;-72
2023/01/07 05:33:40;;;;;;;0.00;0.00;;;9.60;99.90;;;;;;5028086;28;20064;-72
2023/01/07 05:36:07;;;;;;;0.00;0.00;;;9.60;99.90;;;;;;5025685;28;20026;-72
2023/01/07 05:38:34;;;;;;;0.00;0.00;;;9.60;99.90;;;;;;5023859;28;20017;-72
2023/01/07 05:41:00;;;;;;;;;;;9.60;99.90;;;;;;5023650;28;20021;-72
2023/01/07 05:43:27;;;;;;;0.00;0.00;;;9.60;99.90;;;;;;5023247;28;19912;-72
2023/01/07 05:45:54;;;;;;;0.00;0.00;;;9.60;99.90;;;;;;5018730;28;20117;-72
2023/01/07 05:48:20;;;;;;;0.00;0.00;;;9.60;99.90;;;;;;5022863;28;20020;-72
2023/01/07 05:50:46;;;;;;;0.00;0.00;;;9.60;99.90;;;;;;5023472;28;20018;-72
2023/01/07 05:53:12;;;;;;;0.00;0.00;;;9.60;99.90;;;;;;5027203;28;20029;-72
2023/01/07 05:55:38;;;;;;;0.00;0.00;;;9.60;99.90;;;;;;5026570;28;20029;-72
2023/01/07 05:58:04;;;;;;;0.00;0.00;;;9.50;99.90;;;;;;5024682;28;20104;-72
2023/01/07 06:00:35;;;;;;;0.00;0.00;;;9.50;99.90;;;;;;5018574;28;20190;-72
2023/01/07 06:03:01;;;;;;;0.00;0.00;;;9.50;99.90;;;;;;5019071;28;20009;-72
2023/01/07 06:05:29;;;;;;;0.00;0.00;;;9.50;99.90;;;;;;5024873;28;20022;-72
2023/01/07 06:07:56;;;;;;;0.00;0.00;;;9.30;99.90;;;;;;5023462;28;20443;-72
2023/01/07 06:10:22;;;;;;;0.00;0.00;;;9.30;99.90;;;;;;5021138;28;20095;-72
2023/01/07 06:12:50;;;;;;;0.00;0.00;;;9.40;99.90;;;;;;5020128;28;20052;-71
2023/01/07 06:15:17;;;;;;;0.00;0.00;;;9.40;99.90;;;;;;5038677;28;20025;-74
2023/01/07 06:17:43;;;;;;;0.00;0.00;;;9.40;99.90;;;;;;5026537;28;20108;-71
2023/01/07 06:20:09;;;;;;;0.00;0.00;;;9.40;99.90;;;;;;5022336;28;20104;-72
2023/01/07 06:22:36;;;;;;;0.00;0.00;;;9.40;99.90;;;;;;5022418;28;20029;-72
2023/01/07 06:25:03;;;;;;;;;;;9.40;99.90;;;;;;5024963;28;20025;-72
2023/01/07 06:27:37;;;;;;;0.00;0.00;;;9.30;99.90;;;;;;5017107;28;20301;-73
2023/01/07 06:30:08;;;;;;;0.00;0.00;;;9.30;99.90;;;;;;5018472;28;20091;-72
2023/01/07 06:32:43;;;;;;;0.00;0.00;;;9.20;99.90;;;;;;5023136;28;20025;-72
2023/01/07 06:35:10;;;;;;;0.00;0.00;;;9.20;99.90;;;;;;5033005;28;20025;-72
2023/01/07 06:37:36;;;;;;;0.00;0.00;;;9.10;99.90;;;;;;5022066;28;20049;-71
2023/01/07 06:40:04;;;;;;;0.00;0.00;;;9.00;99.90;;;;;;5022878;28;20022;-72
2023/01/07 06:42:30;;;;;;;0.00;0.00;;;8.90;99.90;;;;;;5029205;28;20471;-72
2023/01/07 06:44:56;;;;;;;;;;;8.80;99.90;;;;;;5021759;28;20355;-72
2023/01/07 06:47:24;;;;;;;0.00;0.00;;;8.70;99.90;;;;;;5027197;28;20500;-72
2023/01/07 06:49:51;;;;;;;0.00;0.00;;;8.80;99.90;;;;;;5020363;28;20020;-72
2023/01/07 06:52:18;;;;;;;0.00;0.00;;;9.00;99.90;;;;;;5023959;28;20498;-72
2023/01/07 06:54:44;;;;;;;;;;;9.20;99.90;;;;;;5024143;28;20040;-72
2023/01/07 06:57:11;;;;;;;0.00;0.00;;;9.40;99.90;;;;;;5025043;28;19924;-72
2023/01/07 06:59:36;;;;;;;;;;;9.50;99.90;;;;;;5021311;28;20025;-72
2023/01/07 07:02:03;;;;;;;0.65;0.10;;;9.50;99.90;;;;;;5023963;28;19916;-72
2023/01/07 07:04:33;;;;;;;;;;;9.50;99.90;;;;;;5027260;28;20470;-72
2023/01/07 07:06:58;;;;;;;0.00;0.00;;;9.40;99.90;;;;;;5014669;28;20007;-72
2023/01/07 07:09:24;;;;;;;0.00;0.00;;;9.70;99.90;;;;;;5025862;28;20445;-72
2023/01/07 07:11:50;;;;;;;0.00;0.00;;;10.40;99.90;;;;;;5040157;28;20075;-72
2023/01/07 07:14:15;;;;;;;0.00;0.00;;;11.20;99.90;;;;;;5019014;28;20029;-72
2023/01/07 07:16:43;;;;;;;0.00;0.00;;;11.90;99.90;;;;;;5022676;28;20739;-72
2023/01/07 07:19:10;;;;;;;0.00;0.00;;;12.70;99.90;;;;;;5019697;28;20053;-73
2023/01/07 07:21:36;;;;;;;;;;;13.40;99.90;;;;;;5019568;28;20820;-74
2023/01/07 07:24:03;;;;;;;0.00;0.00;;;14.00;99.90;;;;;;5033748;28;19905;-74
2023/01/07 07:26:28;;;;;;;0.00;0.00;;;14.60;99.90;;;;;;5018813;28;20036;-74
2023/01/07 07:28:57;;;;;;;0.00;0.00;;;15.10;99.90;;;;;;5020996;28;20030;-74
2023/01/07 07:31:23;;;;;;;0.00;0.00;;;15.60;99.90;;;;;;5026726;28;20115;-74
2023/01/07 07:33:48;;;;;;;0.00;0.00;;;15.90;99.90;;;;;;5017558;28;20441;-74
2023/01/07 07:36:15;;;;;;;0.00;0.00;;;16.00;99.80;;;;;;5021059;28;20047;-74
2023/01/07 07:38:41;;;;;;;0.00;0.00;;;15.70;99.90;;;;;;5027022;28;20018;-75
2023/01/07 07:41:06;;;;;;;0.00;0.00;;;15.10;99.90;;;;;;5036435;28;20785;-73
2023/01/07 07:43:36;;;;;;;0.00;0.00;;;14.90;99.90;;;;;;5021172;28;20033;-74
2023/01/07 07:46:02;;;;;;;0.00;0.00;;;14.40;99.90;;;;;;5016451;28;20318;-72
2023/01/07 07:48:28;;;;;;;0.00;0.00;;;13.80;99.90;;;;;;5023467;28;20104;-74
2023/01/07 07:50:56;;;;;;;0.00;0.00;;;13.30;99.90;;;;;;5034713;28;20026;-73
2023/01/07 07:53:22;;;;;;;0.00;0.00;;;12.90;99.90;;;;;;5027406;28;20025;-73
2023/01/07 07:55:48;;;;;;;0.00;0.00;;;12.70;99.90;;;;;;5027623;28;20033;-73
2023/01/07 07:58:17;;;;;;;0.00;0.00;;;12.60;99.90;;;;;;5020118;28;20029;-74
2023/01/07 08:00:42;;;;;;;0.00;0.00;;;12.70;99.90;;;;;;5022976;28;20029;-73
2023/01/07 08:03:10;;;;;;;0.00;0.00;;;12.90;99.90;;;;;;5024399;28;20057;-74
2023/01/07 08:05:41;;;;;;;0.00;0.00;;;13.10;99.90;;;;;;5021381;28;21699;-73
2023/01/07 08:08:12;;;;;;;0.00;0.00;;;13.20;99.90;;;;;;5018693;28;20698;-74
2023/01/07 08:10:41;;;;;;;0.00;0.00;;;13.40;99.90;;;;;;5016962;28;20474;-73
2023/01/07 08:13:09;;;;;;;0.00;0.00;;;13.50;99.90;;;;;;5014747;28;20501;-73
2023/01/07 08:15:40;;;;;;;0.00;0.00;;;13.20;99.90;;;;;;5021805;28;20603;-73
2023/01/07 08:18:09;;;;;;;0.00;0.00;;;13.00;99.90;;;;;;5020467;28;21219;-73
2023/01/07 08:20:35;;;;;;;0.00;0.00;;;12.90;99.90;;;;;;5023141;28;20020;-72
2023/01/07 08:23:03;;;;;;;0.00;0.00;;;13.30;99.90;;;;;;5021189;28;20155;-73
2023/01/07 08:25:31;;;;;;;0.17;0.05;;;14.20;99.90;;;;;;5015654;28;20041;-74
2023/01/07 08:27:58;;;;;;;0.00;0.00;;;16.00;99.90;;;;;;5023730;28;20159;-73
2023/01/07 08:30:25;;;;;;;0.00;0.00;;;18.00;95.60;;;;;;5012790;28;20043;-73
2023/01/07 08:32:53;;;;;;;0.00;0.00;;;19.30;92.50;;;;;;5026730;28;20029;-73
2023/01/07 08:35:21;;;;;;;0.00;0.00;;;19.70;90.30;;;;;;5015816;28;20048;-74
2023/01/07 08:37:51;;;;;;;0.00;0.00;;;18.90;88.00;;;;;;5022980;28;20016;-73
2023/01/07 08:40:16;;;;;;;0.00;0.00;;;18.30;90.20;;;;;;5037202;28;20023;-74
2023/01/07 08:42:43;;;;;;;0.00;0.00;;;18.70;89.90;;;;;;5017524;28;20025;-73
2023/01/07 08:45:11;;;;;;;0.00;0.00;;;19.60;86.90;;;;;;5015702;28;20025;-75
2023/01/07 08:47:46;;;;;;;0.00;0.00;;;19.70;85.20;;;;;;5014154;28;20112;-75
2023/01/07 08:50:13;;;;;;;0.05;0.05;;;21.10;80.70;;;;;;5031319;28;20021;-77
2023/01/07 08:52:39;;;;;;;0.00;0.00;;;22.30;75.40;;;;;;5022916;28;20030;-75
2023/01/07 08:55:05;;;;;;;0.00;0.00;;;21.90;73.50;;;;;;5024135;28;20052;-74
2023/01/07 08:57:32;;;;;;;0.00;0.00;;;22.00;73.90;;;;;;5030831;28;20045;-75
2023/01/07 08:59:59;;;;;;;0.00;0.00;;;22.30;71.60;;;;;;5016856;28;20029;-74
2023/01/07 09:02:25;;;;;;;0.00;0.00;;;22.00;69.60;;;;;;5021101;28;20468;-75
2023/01/07 09:04:52;;;;;;;0.00;0.00;;;21.50;70.90;;;;;;5024681;28;20554;-74
2023/01/07 09:07:25;;;;;;;0.00;0.00;;;20.90;72.20;;;;;;5018278;28;20053;-74
2023/01/07 09:09:54;;;;;;;0.00;0.00;;;20.30;74.70;;;;;;5015590;28;20045;-73
2023/01/07 09:12:19;;;;;;;0.00;0.00;;;20.10;75.90;;;;;;5035992;28;20048;-77
2023/01/07 09:14:47;;;;;;;0.00;0.00;;;21.50;74.30;;;;;;5025896;28;20545;-78
2023/01/07 09:17:19;;;;;;;0.00;0.00;;;21.30;72.80;;;;;;5021623;28;20030;-77
2023/01/07 09:19:45;;;;;;;0.00;0.00;;;20.30;74.00;;;;;;5029883;28;20499;-78
2023/01/07 09:22:11;;;;;;;0.00;0.00;;;19.90;75.80;;;;;;5024247;28;20041;-78
2023/01/07 09:24:47;;;;;;;0.00;0.00;;;20.30;76.70;;;;;;5023706;28;20457;-77
2023/01/07 09:27:17;;;;;;;0.10;0.10;;;21.60;73.80;;;;;;5034316;28;20040;-80
2023/01/07 09:29:44;;;;;;;0.00;0.00;;;22.20;72.00;;;;;;5026136;28;20047;-77
2023/01/07 09:32:17;;;;;;;0.00;0.00;;;23.10;70.20;;;;;;5024017;28;21535;-74
2023/01/07 09:34:46;;;;;;;0.00;0.00;;;23.80;66.70;;;;;;5019987;28;20033;-74
2023/01/07 09:37:16;;;;;;;0.10;0.10;;;24.20;63.90;;;;;;5019861;28;20025;-73
2023/01/07 09:39:43;;;;;;;0.00;0.00;;;22.50;63.50;;;;;;5020895;28;20040;-74
2023/01/07 09:42:31;;;;;;;0.13;0.10;;;22.10;65.10;;;;;;5020158;28;20100;-74
2023/01/07 09:45:22;;;;;;;0.00;0.00;;;23.10;64.40;;;;;;5033234;28;20014;-74
2023/01/07 09:47:58;;;;;;;0.00;0.00;;;22.10;65.00;;;;;;5027907;28;20164;-74
2023/01/07 09:50:39;;;;;;;0.10;0.10;;;21.60;66.30;;;;;;5022902;28;20017;-75
2023/01/07 09:53:33;;;;;;;0.00;0.00;;;23.10;65.70;;;;;;5022801;28;20029;-75
2023/01/07 09:56:05;;;;;;;0.55;0.52;;;24.50;61.30;;;;;;5008355;28;20037;-74
2023/01/07 09:58:42;;;;;;;0.00;0.00;;;23.90;60.50;;;;;;5035361;28;20018;-75
2023/01/07 10:01:22;;;;;;;;;;;22.60;62.50;;;;;;5021650;28;20027;-75
2023/01/07 10:04:10;;;;;;;0.00;0.00;;;21.70;62.60;;;;;;5025030;28;19916;-74
2023/01/07 10:06:53;;;;;;;0.20;0.10;;;19.60;66.40;;;;;;5027369;28;20079;-74
2023/01/07 10:09:45;;;;;;;0.08;0.08;;;18.60;71.40;;;;;;5040069;28;20132;-74
2023/01/07 10:12:32;;;;;;;0.00;0.00;;;18.60;73.50;;;;;;5024153;28;20045;-74
2023/01/07 10:15:13;;;;;;;0.00;0.00;;;19.30;72.30;;;;;;5025086;28;20477;-74
2023/01/07 10:17:46;;;;;;;0.00;0.00;;;18.50;72.50;;;;;;5024422;28;20087;-74
2023/01/07 10:20:43;;;;;;;0.00;0.00;;;17.60;75.90;;;;;;5024177;28;20045;-73
2023/01/07 10:23:31;;;;;;;0.00;0.00;;;17.10;78.80;;;;;;5023219;28;20053;-74
2023/01/07 10:26:05;;;;;;;0.00;0.00;;;16.30;84.70;;;;;;5019618;28;20379;-74
2023/01/07 10:28:35;;;;;;;0.00;0.00;;;16.60;87.10;;;;;;5022789;28;20053;-75
2023/01/07 10:31:04;;;;;;;0.00;0.00;;;16.10;87.00;;;;;;5026483;28;20036;-68
2023/01/07 10:33:33;;;;;;;0.43;0.30;;;16.70;89.00;;;;;;5019816;28;20034;-69
2023/01/07 10:36:21;;;;;;;0.00;0.00;;;17.10;88.20;;;;;;5021173;28;20025;-69
2023/01/07 10:39:19;;;;;;;0.00;0.00;;;17.60;84.80;;;;;;5027095;28;20026;-77
2023/01/07 10:42:16;;;;;;;0.00;0.00;;;16.30;87.80;;;;;;4969373;28;20026;-76
2023/01/07 10:45:01;;;;;;;0.00;0.00;;;16.10;90.30;;;;;;4976898;28;20037;-74
2023/01/07 10:47:51;;;;;;;0.00;0.00;;;15.30;92.50;;;;;;5021919;28;20103;-77
2023/01/07 10:50:43;;;;;;;0.00;0.00;;;14.50;95.80;;;;;;5028397;28;20565;-76
2023/01/07 10:53:12;;;;;;;0.00;0.00;;;13.80;99.40;;;;;;5028070;28;20087;-77
2023/01/07 10:56:15;;;;;;;0.00;0.00;;;13.40;99.90;;;;;;5012794;28;20832;-76
2023/01/07 10:58:43;;;;;;;0.00;0.00;;;13.00;99.90;;;;;;5039997;28;20033;-76
2023/01/07 11:01:22;;;;;;;0.00;0.00;;;13.00;99.90;;;;;;5023166;28;20037;-77
2023/01/07 11:04:03;;;;;;;0.00;0.00;;;13.00;99.90;;;;;;5028391;28;20035;-74
2023/01/07 11:06:51;;;;;;;0.00;0.00;;;13.20;99.90;;;;;;5021482;28;20025;-75
2023/01/07 11:09:45;;;;;;;0.00;0.00;;;13.30;99.90;;;;;;5029495;28;20022;-75
2023/01/07 11:12:44;;;;;;;0.00;0.00;;;13.30;99.90;;;;;;5026196;28;20049;-75
2023/01/07 11:15:38;;;;;;;0.00;0.00;;;13.50;99.90;;;;;;5029278;28;20036;-77
2023/01/07 11:18:25;;;;;;;0.05;0.05;;;13.70;99.90;;;;;;5013362;28;20064;-76
2023/01/07 11:20:59;;;;;;;0.00;0.00;;;13.60;99.90;;;;;;5016897;28;20128;-77
2023/01/07 11:23:42;;;;;;;0.00;0.00;;;13.70;99.90;;;;;;5042580;28;20025;-74
2023/01/07 11:26:28;;;;;;;0.00;0.00;;;13.80;99.90;;;;;;5011019;28;20028;-71
2023/01/07 11:29:14;;;;;;;0.00;0.00;;;13.90;99.90;;;;;;5034494;28;20495;-72
2023/01/07 11:31:54;;;;;;;0.00;0.00;;;14.00;99.90;;;;;;5024151;28;20045;-73
2023/01/07 11:34:50;;;;;;;0.00;0.00;;;14.00;99.90;;;;;;5023402;28;20024;-77
2023/01/07 11:37:39;;;;;;;0.00;0.00;;;14.30;99.90;;;;;;5020815;28;20027;-77
2023/01/07 11:40:19;;;;;;;0.10;0.03;;;14.10;99.90;;;;;;5030795;28;20052;-76
2023/01/07 11:43:19;;;;;;;0.00;0.00;;;13.60;99.90;;;;;;5023350;28;20025;-76
2023/01/07 11:45:50;;;;;;;0.00;0.00;;;13.30;99.90;;;;;;5026256;28;20104;-76
2023/01/07 11:48:36;;;;;;;0.00;0.00;;;13.20;99.90;;;;;;5027566;28;20040;-76
2023/01/07 11:51:07;;;;;;;0.00;0.00;;;13.00;99.90;;;;;;5019148;28;20409;-76
2023/01/07 11:53:49;;;;;;;0.00;0.00;;;12.90;99.90;;;;;;5024789;28;20029;-76
2023/01/07 11:56:28;;;;;;;0.00;0.00;;;12.90;99.90;;;;;;5021510;28;20078;-76
2023/01/07 11:59:13;;;;;;;0.00;0.00;;;12.30;99.90;;;;;;5015357;28;20660;-75
2023/01/07 12:01:48;;;;;;;0.00;0.00;;;12.40;99.90;;;;;;5027865;28;20075;-76
2023/01/07 12:04:24;;;;;;;0.00;0.00;;;12.40;99.90;;;;;;5039695;28;20390;-76
2023/01/07 12:06:53;;;;;;;0.00;0.00;;;12.30;99.90;;;;;;5018537;28;20052;-77
2023/01/07 12:09:45;;;;;;;0.00;0.00;;;12.40;99.90;;;;;;5024674;28;20036;-76
2023/01/07 12:12:30;;;;;;;0.25;0.20;;;12.40;99.90;;;;;;5017610;28;20018;-77
2023/01/07 12:14:59;;;;;;;0.00;0.00;;;12.40;99.90;;;;;;5019635;28;20072;-77
2023/01/07 12:17:30;;;;;;;0.00;0.00;;;12.40;99.90;;;;;;5027451;28;20035;-76
2023/01/07 12:20:34;;;;;;;0.00;0.00;;;12.20;99.90;;;;;;5022414;28;20465;-75
2023/01/07 12:23:13;;;;;;;0.00;0.00;;;11.90;99.90;;;;;;5044108;28;20057;-76
2023/01/07 12:25:45;;;;;;;0.00;0.00;;;11.60;99.90;;;;;;5022025;28;20029;-75
2023/01/07 12:28:17;;;;;;;0.10;0.10;;;11.80;99.90;;;;;;5018171;28;20083;-76
2023/01/07 12:30:50;;;;;;;0.10;0.10;;;12.00;99.90;;;;;;5022358;28;20042;-75
2023/01/07 12:33:42;;;;;;;4.38;0.15;;;12.20;99.90;;;;;;5022075;28;20036;-75
2023/01/07 12:36:35;;;;;;;0.00;0.00;;;12.40;99.90;;;;;;5022393;28;20034;-68
2023/01/07 12:39:06;;;;;;;0.30;0.30;;;12.60;99.90;;;;;;5008929;28;20048;-76
2023/01/07 12:41:40;;;;;;;0.00;0.00;;;12.80;99.90;;;;;;5024194;28;20013;-74
2023/01/07 12:44:21;;;;;;;0.00;0.00;;;12.80;99.90;;;;;;5019370;28;20013;-75
2023/01/07 12:47:19;;;;;;;0.00;0.00;;;12.70;99.90;;;;;;5021663;28;20045;-75
2023/01/07 12:50:17;;;;;;;0.00;0.00;;;12.80;99.90;;;;;;5020252;28;20045;-75
2023/01/07 12:52:50;;;;;;;0.00;0.00;;;12.50;99.90;;;;;;5015515;28;20025;-75
2023/01/07 12:55:24;;;;;;;0.10;0.10;;;12.40;99.90;;;;;;5021791;28;20025;-76
2023/01/07 12:58:02;;;;;;;1.52;0.40;;;12.10;99.90;;;;;;5017871;28;20709;-75
2023/01/07 13:00:37;;;;;;;0.30;0.22;;;12.00;99.90;;;;;;5014752;28;20044;-75
2023/01/07 13:03:17;;;;;;;0.00;0.00;;;12.10;99.90;;;;;;5035786;28;20040;-74
2023/01/07 13:06:29;;;;;;;0.00;0.00;;;12.20;99.90;;;;;;5020854;28;20258;-75
2023/01/07 13:09:06;;;;;;;0.00;0.00;;;12.20;99.90;;;;;;5022122;28;20033;-74
2023/01/07 13:14:35;;;;;;;0.00;0.00;;;12.10;99.90;;;;;;5021388;28;20125;-75
2023/01/07 13:17:25;;;;;;;0.00;0.00;;;12.00;99.90;;;;;;5018742;28;20024;-75
2023/01/07 13:19:52;;;;;;;0.00;0.00;;;12.00;99.90;;;;;;5018067;28;20024;-75
2023/01/07 13:22:46;;;;;;;0.00;0.00;;;12.00;99.90;;;;;;5023475;28;20021;-75
2023/01/07 13:25:13;;;;;;;0.00;0.00;;;12.10;99.90;;;;;;5021364;28;20025;-75
2023/01/07 13:27:58;;;;;;;;;;;12.10;99.90;;;;;;5020015;28;20104;-75
2023/01/07 13:30:33;;;;;;;0.00;0.00;;;12.10;99.90;;;;;;5015924;28;19916;-75
2023/01/07 13:33:17;;;;;;;0.00;0.00;;;12.00;99.90;;;;;;5021724;28;20021;-75
2023/01/07 13:36:25;;;;;;;0.00;0.00;;;12.00;99.90;;;;;;5022091;28;20030;-75